YRID weather

Riddell Airport
Riddell, Victoria, Australia

Public forecast

Using degrees Celsius for public forecast. Weather courtesy of forecast.io.

Closest aviation weather report (METAR) to Riddell Airport

Closest report is Melbourne International Airport, 13.0 nm (24.2 km) SSE. Retrieved 2019/10/17 21:30 UTC (7 minutes ago):

YMML 172130Z 35012KT 9999 FEW028 10/04 Q1016 FM2300 31020G34KT CAVOK FM2130 MOD TURB BLW 5000FT

Closest aviation forecast (TAF) to Riddell Airport

Forecast is more than 12 hours old.

Closest forecast is Melbourne International Airport, 13.0 nm (24.2 km) SSE. Retrieved 2019/10/17 06:00 UTC (16 hours ago):

TAF YMML 170505Z 1706/1812 25015G25KT 9999 FEW030 SCT040 BECMG 1708/1709 26010KT 9999 FEW030 FEW045 FM171400 35008KT CAVOK FM172200 32018G28KT CAVOK FM180600 30014KT CAVOK FM180900 26015G25KT 9999 -SHRA FEW040 BKN050 INTER 1809/1812 5000 SHRA SCT020